createdAt,value
2022-11-26T00:00:57.149Z,99.90
2022-11-26T00:03:25.198Z,101.50
2022-11-26T00:05:57.934Z,103.07
2022-11-26T00:08:31.437Z,102.43
2022-11-26T00:11:01.036Z,103.50
2022-11-26T00:13:31.360Z,107.60
2022-11-26T00:15:59.276Z,105.07
2022-11-26T00:18:27.437Z,104.03
2022-11-26T00:20:57.995Z,106.27
2022-11-26T00:23:28.514Z,103.73
2022-11-26T00:25:58.809Z,101.67
2022-11-26T00:28:32.975Z,102.33
2022-11-26T00:31:03.306Z,99.90
2022-11-26T00:33:32.816Z,99.77
2022-11-26T00:36:04.757Z,101.33
2022-11-26T00:38:32.960Z,103.97
2022-11-26T00:41:00.885Z,102.27
2022-11-26T00:43:28.837Z,103.83
2022-11-26T00:45:58.257Z,107.43
2022-11-26T00:48:26.231Z,107.10
2022-11-26T00:50:54.266Z,108.03
2022-11-26T00:53:25.429Z,109.97
2022-11-26T00:55:53.366Z,111.60
2022-11-26T00:58:24.943Z,112.97
2022-11-26T01:00:53.801Z,111.63
2022-11-26T01:03:23.166Z,111.73
2022-11-26T01:05:52.583Z,112.33
2022-11-26T01:08:28.741Z,110.20
2022-11-26T01:10:56.738Z,113.17
2022-11-26T01:13:24.772Z,110.20
2022-11-26T01:15:52.832Z,106.27
2022-11-26T01:18:23.578Z,106.83
2022-11-26T01:20:52.093Z,105.60
2022-11-26T01:23:21.050Z,102.50
2022-11-26T01:25:49.250Z,101.87
2022-11-26T01:28:19.621Z,97.30
2022-11-26T01:30:48.151Z,96.80
2022-11-26T01:33:16.103Z,100.00
2022-11-26T01:35:45.383Z,99.93
2022-11-26T01:38:15.733Z,98.43
2022-11-26T01:41:03.546Z,97.17
2022-11-26T01:43:37.509Z,95.13
2022-11-26T01:46:14.679Z,98.57
2022-11-26T01:48:43.054Z,100.43
2022-11-26T01:51:13.161Z,102.90
2022-11-26T01:53:49.164Z,107.60
2022-11-26T01:56:34.296Z,108.93
2022-11-26T01:59:09.426Z,109.13
2022-11-26T02:01:37.910Z,108.30
2022-11-26T02:04:14.320Z,108.10
2022-11-26T02:06:46.209Z,109.10
2022-11-26T02:09:15.298Z,108.70
2022-11-26T02:11:43.375Z,109.43
2022-11-26T02:14:15.682Z,99.57
2022-11-26T02:17:10.780Z,103.53
2022-11-26T02:19:53.753Z,107.03
2022-11-26T02:22:43.344Z,107.40
2022-11-26T02:25:18.648Z,100.40
2022-11-26T02:28:07.318Z,96.60
2022-11-26T02:30:39.056Z,101.90
2022-11-26T02:33:12.726Z,98.47
2022-11-26T02:35:43.728Z,105.43
2022-11-26T02:38:14.820Z,104.00
2022-11-26T02:40:42.870Z,98.60
2022-11-26T02:43:10.993Z,100.37
2022-11-26T02:45:43.619Z,99.23
2022-11-26T02:48:15.757Z,100.80
2022-11-26T02:50:48.445Z,97.50
2022-11-26T02:53:21.847Z,93.67
2022-11-26T02:55:54.905Z,94.23
2022-11-26T02:58:22.817Z,95.33
2022-11-26T03:00:52.697Z,93.27
2022-11-26T03:03:26.152Z,89.30
2022-11-26T03:05:57.364Z,94.40
2022-11-26T03:08:26.805Z,94.40
2022-11-26T03:10:54.821Z,92.87
2022-11-26T03:13:22.920Z,94.10
2022-11-26T03:15:52.213Z,94.20
2022-11-26T03:18:20.260Z,94.80
2022-11-26T03:20:52.154Z,94.30
2022-11-26T03:23:20.429Z,95.40
2022-11-26T03:25:48.518Z,91.80
2022-11-26T03:28:17.490Z,93.10
2022-11-26T03:30:45.400Z,94.87
2022-11-26T03:33:14.669Z,95.90
2022-11-26T03:35:42.608Z,96.33
2022-11-26T03:38:10.745Z,97.97
2022-11-26T03:40:38.673Z,99.40
2022-11-26T03:43:06.619Z,93.03
2022-11-26T03:45:34.564Z,96.50
2022-11-26T03:48:02.512Z,93.17
2022-11-26T03:50:31.786Z,92.50
2022-11-26T03:52:59.733Z,92.10
2022-11-26T03:55:27.781Z,90.77
2022-11-26T03:57:55.682Z,91.07
2022-11-26T04:00:23.766Z,90.60
2022-11-26T04:02:52.757Z,93.37
2022-11-26T04:05:20.800Z,92.40
2022-11-26T04:07:50.174Z,91.90
2022-11-26T04:10:18.449Z,90.40
2022-11-26T04:12:46.352Z,90.90
2022-11-26T04:15:14.296Z,89.03
2022-11-26T04:17:42.185Z,89.53
2022-11-26T04:20:10.809Z,87.47
2022-11-26T04:22:38.822Z,89.13
2022-11-26T04:25:08.886Z,82.77
2022-11-26T04:27:36.790Z,83.87
2022-11-26T04:30:05.446Z,85.90
2022-11-26T04:32:33.369Z,84.97
2022-11-26T04:35:01.391Z,84.73
2022-11-26T04:37:29.277Z,84.93
2022-11-26T04:39:57.198Z,85.97
2022-11-26T04:42:26.612Z,86.00
2022-11-26T04:44:54.539Z,86.27
2022-11-26T04:47:22.444Z,87.00
2022-11-26T04:49:50.342Z,85.57
2022-11-26T04:52:18.379Z,86.13
2022-11-26T04:54:49.636Z,83.93
2022-11-26T04:57:17.957Z,86.03
2022-11-26T04:59:47.237Z,86.53
2022-11-26T05:02:15.246Z,83.30
2022-11-26T05:04:43.306Z,84.03
2022-11-26T05:07:11.316Z,83.07
2022-11-26T05:09:39.367Z,83.37
2022-11-26T05:12:07.604Z,86.20
2022-11-26T05:14:35.962Z,84.50
2022-11-26T05:17:05.483Z,84.70
2022-11-26T05:19:34.237Z,86.20
2022-11-26T05:22:02.199Z,87.47
2022-11-26T05:24:30.142Z,91.17
2022-11-26T05:26:58.082Z,87.83
2022-11-26T05:29:26.723Z,89.33
2022-11-26T05:31:54.761Z,88.27
2022-11-26T05:34:24.069Z,89.97
2022-11-26T05:36:51.922Z,92.17
2022-11-26T05:39:19.842Z,92.93
2022-11-26T05:41:47.764Z,93.07
2022-11-26T05:44:15.934Z,92.87
2022-11-26T05:46:44.552Z,93.43
2022-11-26T05:49:12.436Z,95.57
2022-11-26T05:51:41.703Z,94.37
2022-11-26T05:54:14.205Z,93.90
2022-11-26T05:56:43.274Z,96.17
2022-11-26T05:59:11.661Z,96.33
2022-11-26T06:01:39.746Z,96.53
2022-11-26T06:04:07.740Z,96.87
2022-11-26T06:06:35.773Z,99.13
2022-11-26T06:09:05.479Z,96.90
2022-11-26T06:11:33.364Z,97.83
2022-11-26T06:14:01.268Z,97.87
2022-11-26T06:16:29.317Z,100.90
2022-11-26T06:18:57.743Z,97.60
2022-11-26T06:21:25.839Z,98.07
2022-11-26T06:23:59.096Z,96.20
2022-11-26T06:26:29.064Z,95.20
2022-11-26T06:28:57.138Z,96.27
2022-11-26T06:31:25.260Z,94.77
2022-11-26T06:33:55.273Z,94.67
2022-11-26T06:36:23.198Z,96.07
2022-11-26T06:38:51.292Z,95.80
2022-11-26T06:41:19.365Z,94.13
2022-11-26T06:43:48.690Z,93.80
2022-11-26T06:46:16.709Z,97.77
2022-11-26T06:48:44.734Z,95.03
2022-11-26T06:51:14.876Z,94.83
2022-11-26T06:53:43.284Z,96.43
2022-11-26T06:56:19.523Z,96.10
2022-11-26T06:58:49.793Z,94.23
2022-11-26T07:01:20.259Z,94.83
2022-11-26T07:03:48.672Z,98.30
2022-11-26T07:06:18.308Z,94.13
2022-11-26T07:08:46.728Z,92.73
2022-11-26T07:11:15.214Z,90.07
2022-11-26T07:13:43.188Z,88.13
2022-11-26T07:16:13.418Z,87.63
2022-11-26T07:18:41.584Z,90.03
2022-11-26T07:21:11.386Z,89.33
2022-11-26T07:23:39.924Z,86.60
2022-11-26T07:26:09.399Z,87.77
2022-11-26T07:28:37.988Z,84.77
2022-11-26T07:31:12.941Z,83.33
2022-11-26T07:33:45.710Z,81.20
2022-11-26T07:36:16.664Z,83.37
2022-11-26T07:38:44.760Z,82.43
2022-11-26T07:41:15.234Z,86.10
2022-11-26T07:43:44.386Z,84.90
2022-11-26T07:46:15.402Z,83.83
2022-11-26T07:48:43.520Z,83.77
2022-11-26T07:51:18.473Z,79.63
2022-11-26T07:53:46.513Z,81.47
2022-11-26T07:56:14.642Z,82.50
2022-11-26T07:58:43.099Z,80.23
2022-11-26T08:01:13.220Z,81.00
2022-11-26T08:03:42.158Z,79.13
2022-11-26T08:06:11.862Z,80.77
2022-11-26T08:08:41.904Z,79.43
2022-11-26T08:11:13.982Z,76.93
2022-11-26T08:13:41.970Z,78.37
2022-11-26T08:16:10.430Z,77.20
2022-11-26T08:18:38.427Z,76.30
2022-11-26T08:21:06.754Z,75.47
2022-11-26T08:23:35.266Z,76.63
2022-11-26T08:28:56.539Z,77.40
2022-11-26T08:31:25.029Z,76.07
2022-11-26T08:33:53.140Z,76.23
2022-11-26T08:36:21.131Z,75.53
2022-11-26T08:38:49.135Z,76.47
2022-11-26T08:41:18.471Z,74.07
2022-11-26T08:46:34.442Z,75.67
2022-11-26T08:49:02.658Z,72.43
2022-11-26T08:51:30.633Z,72.40
2022-11-26T08:53:58.595Z,71.60
2022-11-26T08:56:27.875Z,68.60
2022-11-26T08:58:55.822Z,68.60
2022-11-26T09:01:25.565Z,71.13
2022-11-26T09:03:55.237Z,72.87
2022-11-26T09:06:24.752Z,70.43
2022-11-26T09:09:10.497Z,71.97
2022-11-26T09:11:41.869Z,72.50
2022-11-26T09:14:10.997Z,71.60
2022-11-26T09:16:39.130Z,69.53
2022-11-26T09:19:08.651Z,69.83
2022-11-26T09:21:37.432Z,70.67
2022-11-26T09:24:05.959Z,69.53
2022-11-26T09:26:34.549Z,70.43
2022-11-26T09:29:04.572Z,69.33
2022-11-26T09:31:32.888Z,69.17
2022-11-26T09:34:02.219Z,70.60
2022-11-26T09:36:30.551Z,69.57
2022-11-26T09:39:00.485Z,69.83
2022-11-26T09:41:39.337Z,67.20
2022-11-26T09:44:27.422Z,70.07
2022-11-26T09:47:13.617Z,68.53
2022-11-26T09:49:51.691Z,70.60
2022-11-26T09:52:23.303Z,67.20
2022-11-26T09:54:56.225Z,68.33
2022-11-26T09:57:31.157Z,68.27
2022-11-26T10:00:00.533Z,69.23
2022-11-26T10:02:28.465Z,67.77
2022-11-26T10:04:56.416Z,66.17
2022-11-26T10:07:40.910Z,64.53
2022-11-26T10:10:17.863Z,61.83
2022-11-26T10:13:26.865Z,63.37
2022-11-26T10:15:59.636Z,61.07
2022-11-26T10:18:38.625Z,59.60
2022-11-26T10:21:32.586Z,58.20
2022-11-26T10:24:18.379Z,57.23
2022-11-26T10:26:46.597Z,56.50
2022-11-26T10:29:22.808Z,56.13
2022-11-26T10:31:56.307Z,53.70
2022-11-26T10:34:31.337Z,55.80
2022-11-26T10:37:01.367Z,56.10
2022-11-26T10:39:29.256Z,55.67
2022-11-26T10:41:57.811Z,54.90
2022-11-26T10:44:40.246Z,53.77
2022-11-26T10:47:31.343Z,53.37
2022-11-26T10:50:46.018Z,53.63
2022-11-26T10:53:07.309Z,56.60
2022-11-26T10:55:39.323Z,58.17
2022-11-26T10:58:15.876Z,56.43
2022-11-26T11:00:47.089Z,55.17
2022-11-26T11:03:38.149Z,53.60
2022-11-26T11:06:27.942Z,56.10
2022-11-26T11:08:56.186Z,58.97
2022-11-26T11:11:26.955Z,55.77
2022-11-26T11:13:55.618Z,56.37
2022-11-26T11:16:28.469Z,57.27
2022-11-26T11:19:00.196Z,55.63
2022-11-26T11:21:34.482Z,52.60
2022-11-26T11:24:17.566Z,54.10
2022-11-26T11:26:47.358Z,54.17
2022-11-26T11:29:32.919Z,54.53
2022-11-26T11:32:04.491Z,54.73
2022-11-26T11:34:38.390Z,55.17
2022-11-26T11:37:19.215Z,57.83
2022-11-26T11:39:47.307Z,56.40
2022-11-26T11:42:23.801Z,55.90
2022-11-26T11:44:53.228Z,55.73
2022-11-26T11:47:37.305Z,56.80
2022-11-26T11:50:21.116Z,58.23
2022-11-26T11:52:57.582Z,57.53
2022-11-26T11:55:36.815Z,59.50
2022-11-26T11:58:30.906Z,57.47
2022-11-26T12:01:08.020Z,57.83
2022-11-26T12:03:59.496Z,58.73
2022-11-26T12:06:40.453Z,57.33
2022-11-26T12:09:18.319Z,58.63
2022-11-26T12:11:54.951Z,55.90
2022-11-26T12:14:27.382Z,55.47
2022-11-26T12:17:01.479Z,54.77
2022-11-26T12:19:39.422Z,54.27
2022-11-26T12:22:16.353Z,54.43
2022-11-26T12:24:51.252Z,54.77
2022-11-26T12:27:31.069Z,56.47
2022-11-26T12:30:02.906Z,57.20
2022-11-26T12:32:37.257Z,56.30
2022-11-26T12:35:12.236Z,58.23
2022-11-26T12:37:43.365Z,55.97
2022-11-26T12:40:24.787Z,58.30
2022-11-26T12:42:59.828Z,58.37
2022-11-26T12:45:41.569Z,60.47
2022-11-26T12:48:19.525Z,59.47
2022-11-26T12:50:52.834Z,60.30
2022-11-26T12:53:35.034Z,60.63
2022-11-26T12:56:15.333Z,61.50
2022-11-26T12:58:53.040Z,63.43
2022-11-26T13:01:21.219Z,62.20
2022-11-26T13:03:49.500Z,62.17
2022-11-26T13:06:30.427Z,63.60
2022-11-26T13:09:09.115Z,62.37
2022-11-26T13:11:44.338Z,63.50
2022-11-26T13:14:18.775Z,60.80
2022-11-26T13:16:55.392Z,62.53
2022-11-26T13:19:31.699Z,62.97
2022-11-26T13:22:14.542Z,64.47
2022-11-26T13:25:06.454Z,65.57
2022-11-26T13:27:50.713Z,66.43
2022-11-26T13:30:22.362Z,66.70
2022-11-26T13:33:27.744Z,66.40
2022-11-26T13:36:15.331Z,66.40
2022-11-26T13:38:53.721Z,66.20
2022-11-26T13:41:40.457Z,64.53
2022-11-26T13:44:38.824Z,66.30
2022-11-26T13:47:11.087Z,67.07
2022-11-26T13:49:44.355Z,67.97
2022-11-26T13:52:16.898Z,69.47
2022-11-26T13:54:50.143Z,66.57
2022-11-26T13:57:22.837Z,69.40
2022-11-26T13:59:52.601Z,68.50
2022-11-26T14:02:44.592Z,70.53
2022-11-26T14:05:15.580Z,69.30
2022-11-26T14:07:44.481Z,70.03
2022-11-26T14:10:41.542Z,71.53
2022-11-26T14:13:16.153Z,71.47
2022-11-26T14:15:59.002Z,73.27
2022-11-26T14:19:03.040Z,73.17
2022-11-26T14:21:31.618Z,72.67
2022-11-26T14:24:02.541Z,74.00
2022-11-26T14:26:34.504Z,72.40
2022-11-26T14:29:17.450Z,72.17
2022-11-26T14:31:51.808Z,75.90
2022-11-26T14:34:29.778Z,76.23
2022-11-26T14:36:59.343Z,76.50
2022-11-26T14:39:28.956Z,77.70
2022-11-26T14:42:05.326Z,78.13
2022-11-26T14:44:35.756Z,78.80
2022-11-26T14:47:12.203Z,77.20
2022-11-26T14:49:42.758Z,79.37
2022-11-26T14:52:19.979Z,80.80
2022-11-26T14:54:51.597Z,84.13
2022-11-26T14:57:24.641Z,96.10
2022-11-26T15:00:02.457Z,94.93
2022-11-26T15:02:32.321Z,103.60
2022-11-26T15:05:02.779Z,96.43
2022-11-26T15:07:32.409Z,91.67
2022-11-26T15:10:06.819Z,97.13
2022-11-26T15:12:37.389Z,84.67
2022-11-26T15:15:10.904Z,83.57
2022-11-26T15:17:44.152Z,80.20
2022-11-26T15:20:16.880Z,83.80
2022-11-26T15:22:51.030Z,81.10
2022-11-26T15:25:21.940Z,81.60
2022-11-26T15:27:55.263Z,80.10
2022-11-26T15:30:27.405Z,82.97
2022-11-26T15:33:00.899Z,81.87
2022-11-26T15:35:30.052Z,84.47
2022-11-26T15:37:58.498Z,84.40
2022-11-26T15:40:31.539Z,85.70
2022-11-26T15:43:03.254Z,82.67
2022-11-26T15:45:39.209Z,85.10
2022-11-26T15:48:27.199Z,79.67
2022-11-26T15:51:00.750Z,79.70
2022-11-26T15:53:33.636Z,81.67
2022-11-26T15:56:02.672Z,81.77
2022-11-26T15:58:34.939Z,85.27
2022-11-26T16:01:08.228Z,84.47
2022-11-26T16:03:43.157Z,87.20
2022-11-26T16:06:29.088Z,83.30
2022-11-26T16:09:00.666Z,86.83
2022-11-26T16:11:29.121Z,87.33
2022-11-26T16:13:57.016Z,85.70
2022-11-26T16:16:28.042Z,89.23
2022-11-26T16:18:59.378Z,88.73
2022-11-26T16:21:29.986Z,82.73
2022-11-26T16:24:00.572Z,84.87
2022-11-26T16:26:29.620Z,83.63
2022-11-26T16:28:57.518Z,84.73
2022-11-26T16:31:26.898Z,83.43
2022-11-26T16:33:54.874Z,81.90
2022-11-26T16:36:25.343Z,83.30
2022-11-26T16:38:54.029Z,83.17
2022-11-26T16:41:23.546Z,81.77
2022-11-26T16:43:51.629Z,82.87
2022-11-26T16:46:23.451Z,83.53
2022-11-26T16:48:53.531Z,85.50
2022-11-26T16:51:22.050Z,83.97
2022-11-26T16:53:50.640Z,85.20
2022-11-26T16:56:23.706Z,84.47
2022-11-26T16:58:52.537Z,84.10
2022-11-26T17:01:20.739Z,85.53
2022-11-26T17:03:48.708Z,83.10
2022-11-26T17:06:25.195Z,78.30
2022-11-26T17:08:54.683Z,77.93
2022-11-26T17:11:22.829Z,76.37
2022-11-26T17:13:51.178Z,78.03
2022-11-26T17:16:20.618Z,79.87
2022-11-26T17:18:49.372Z,79.93
2022-11-26T17:21:18.713Z,73.93
2022-11-26T17:23:46.737Z,64.73
2022-11-26T17:26:19.648Z,69.07
2022-11-26T17:28:48.184Z,62.47
2022-11-26T17:31:16.410Z,70.37
2022-11-26T17:33:44.650Z,61.40
2022-11-26T17:36:19.324Z,58.00
2022-11-26T17:38:47.858Z,56.03
2022-11-26T17:41:16.561Z,55.30
2022-11-26T17:43:44.876Z,51.20
2022-11-26T17:46:22.211Z,52.83
2022-11-26T17:48:55.558Z,53.13
2022-11-26T17:51:27.617Z,52.20
2022-11-26T17:53:55.540Z,50.77
2022-11-26T17:56:26.991Z,52.57
2022-11-26T17:58:55.873Z,51.57
2022-11-26T18:01:23.970Z,50.90
2022-11-26T18:03:52.603Z,49.97
2022-11-26T18:06:27.736Z,47.40
2022-11-26T18:08:57.025Z,50.43
2022-11-26T18:11:43.531Z,50.03
2022-11-26T18:14:11.812Z,50.20
2022-11-26T18:16:40.353Z,49.50
2022-11-26T18:19:10.584Z,46.10
2022-11-26T18:21:39.190Z,42.50
2022-11-26T18:24:09.736Z,40.50
2022-11-26T18:26:38.716Z,39.37
2022-11-26T18:29:07.231Z,38.20
2022-11-26T18:31:39.487Z,39.03
2022-11-26T18:34:08.847Z,39.87
2022-11-26T18:36:36.784Z,40.30
2022-11-26T18:39:05.197Z,39.03
2022-11-26T18:41:34.929Z,40.13
2022-11-26T18:44:04.114Z,38.90
2022-11-26T18:46:32.773Z,37.50
2022-11-26T18:49:00.859Z,38.27
2022-11-26T18:51:28.865Z,38.77
2022-11-26T18:53:56.767Z,37.70
2022-11-26T18:56:26.021Z,37.67
2022-11-26T18:58:55.292Z,37.17
2022-11-26T19:01:25.394Z,36.80
2022-11-26T19:03:53.721Z,36.87
2022-11-26T19:06:24.270Z,36.53
2022-11-26T19:08:57.606Z,36.73
2022-11-26T19:11:26.590Z,38.23
2022-11-26T19:13:56.952Z,39.17
2022-11-26T19:16:26.104Z,39.63
2022-11-26T19:18:54.793Z,40.37
2022-11-26T19:21:25.230Z,42.47
2022-11-26T19:23:54.429Z,42.30
2022-11-26T19:26:22.672Z,42.27
2022-11-26T19:28:51.210Z,42.17
2022-11-26T19:31:21.715Z,41.50
2022-11-26T19:33:54.701Z,41.17
2022-11-26T19:36:23.395Z,41.37
2022-11-26T19:38:56.103Z,40.40
2022-11-26T19:41:26.054Z,42.63
2022-11-26T19:43:54.515Z,41.20
2022-11-26T19:46:25.993Z,41.63
2022-11-26T19:48:55.651Z,41.77
2022-11-26T19:51:25.277Z,42.73
2022-11-26T19:53:55.940Z,41.70
2022-11-26T19:56:25.774Z,42.07
2022-11-26T19:58:54.926Z,42.07
2022-11-26T20:01:25.957Z,41.97
2022-11-26T20:03:54.004Z,43.63
2022-11-26T20:06:23.656Z,42.73
2022-11-26T20:08:51.552Z,44.97
2022-11-26T20:11:19.835Z,44.40
2022-11-26T20:13:50.195Z,44.93
2022-11-26T20:16:20.441Z,45.10
2022-11-26T20:18:50.509Z,44.37
2022-11-26T20:21:20.850Z,46.20
2022-11-26T20:23:50.118Z,46.80
2022-11-26T20:26:19.826Z,45.67
2022-11-26T20:28:47.809Z,46.13
2022-11-26T20:31:21.894Z,46.67
2022-11-26T20:33:53.014Z,46.63
2022-11-26T20:36:23.076Z,47.07
2022-11-26T20:38:53.636Z,49.40
2022-11-26T20:41:21.808Z,44.60
2022-11-26T20:43:54.881Z,43.90
2022-11-26T20:46:24.886Z,41.77
2022-11-26T20:48:55.688Z,41.37
2022-11-26T20:51:24.157Z,40.60
2022-11-26T20:53:52.983Z,40.07
2022-11-26T20:56:22.483Z,40.47
2022-11-26T20:58:52.579Z,41.07
2022-11-26T21:01:22.937Z,38.77
2022-11-26T21:03:51.240Z,38.90
2022-11-26T21:06:28.972Z,37.60
2022-11-26T21:08:58.112Z,35.77
2022-11-26T21:11:26.094Z,36.63
2022-11-26T21:13:53.985Z,35.10
2022-11-26T21:16:23.356Z,34.27
2022-11-26T21:18:54.204Z,34.37
2022-11-26T21:21:24.764Z,34.53
2022-11-26T21:23:52.700Z,35.20
2022-11-26T21:26:22.720Z,33.77
2022-11-26T21:28:52.584Z,32.90
2022-11-26T21:31:22.002Z,32.67
2022-11-26T21:33:56.168Z,31.87
2022-11-26T21:36:26.706Z,32.57
2022-11-26T21:38:55.144Z,33.37
2022-11-26T21:41:24.144Z,33.43
2022-11-26T21:43:52.887Z,34.50
2022-11-26T21:46:22.810Z,33.50
2022-11-26T21:48:52.653Z,32.77
2022-11-26T21:51:21.496Z,33.00
2022-11-26T21:53:51.362Z,34.37
2022-11-26T21:56:20.946Z,32.77
2022-11-26T21:58:49.431Z,32.27
2022-11-26T22:01:20.081Z,31.37
2022-11-26T22:03:50.932Z,29.93
2022-11-26T22:06:20.957Z,29.43
2022-11-26T22:08:50.705Z,30.10
2022-11-26T22:11:20.282Z,30.70
2022-11-26T22:13:48.901Z,29.70
2022-11-26T22:16:19.171Z,27.13
2022-11-26T22:18:47.698Z,28.33
2022-11-26T22:21:18.044Z,29.47
2022-11-26T22:23:46.318Z,28.37
2022-11-26T22:26:15.981Z,28.80
2022-11-26T22:28:43.986Z,29.00
2022-11-26T22:31:13.478Z,28.60
2022-11-26T22:33:42.122Z,28.37
2022-11-26T22:36:10.732Z,27.83
2022-11-26T22:38:39.880Z,27.00
2022-11-26T22:41:09.355Z,25.93
2022-11-26T22:43:38.931Z,26.03
2022-11-26T22:46:07.863Z,26.43
2022-11-26T22:48:36.421Z,26.33
2022-11-26T22:51:05.211Z,24.80
2022-11-26T22:53:34.431Z,24.47
2022-11-26T22:56:04.015Z,23.37
2022-11-26T22:58:33.681Z,24.00
2022-11-26T23:01:05.405Z,24.07
2022-11-26T23:03:36.185Z,23.63
2022-11-26T23:06:06.024Z,21.37
2022-11-26T23:08:34.437Z,21.20
2022-11-26T23:11:16.909Z,21.37
2022-11-26T23:13:47.120Z,19.97
2022-11-26T23:16:17.699Z,21.53
2022-11-26T23:18:45.868Z,19.80
2022-11-26T23:21:15.988Z,19.23
2022-11-26T23:23:44.407Z,18.87
2022-11-26T23:26:15.081Z,19.47
2022-11-26T23:28:43.052Z,18.10
2022-11-26T23:31:15.053Z,18.47
2022-11-26T23:33:44.487Z,18.83
2022-11-26T23:36:13.010Z,18.33
2022-11-26T23:38:41.321Z,17.77
2022-11-26T23:41:09.884Z,18.13
2022-11-26T23:43:39.215Z,18.30
2022-11-26T23:46:08.921Z,19.60
2022-11-26T23:48:37.341Z,18.10
2022-11-26T23:51:09.729Z,17.90
2022-11-26T23:53:38.280Z,17.70
2022-11-26T23:56:08.606Z,17.17
2022-11-26T23:58:36.555Z,16.70
